Time;durP1;ratioP1;P1;durP2;ratioP2;P2;SDS_P1;SDS_P2;PMS_P1;PMS_P2;Temp;Humidity;BMP_temperature;BMP_pressure;BME280_temperature;BME280_humidity;BME280_pressure;Samples;Min_cycle;Max_cycle;Signal;HPM_P1;HPM_P2
2024/01/29 00:01:48;;;;;;;56.40;33.27;;;4.20;99.90;;;;;;6245170;23;20023;-76
2024/01/29 00:04:13;;;;;;;49.63;30.83;;;4.20;99.90;;;;;;6245113;23;20000;-74
2024/01/29 00:06:39;;;;;;;56.43;32.63;;;4.20;99.90;;;;;;6218342;23;20419;-75
2024/01/29 00:09:05;;;;;;;49.77;28.23;;;4.10;99.90;;;;;;6245328;23;20165;-75
2024/01/29 00:11:33;;;;;;;47.43;27.43;;;4.00;99.90;;;;;;6245322;23;20000;-73
2024/01/29 00:13:59;;;;;;;45.80;26.73;;;4.00;99.90;;;;;;6245305;23;20378;-76
2024/01/29 00:16:25;;;;;;;45.27;25.97;;;3.90;99.90;;;;;;6245365;23;20000;-77
2024/01/29 00:18:50;;;;;;;46.37;26.73;;;3.80;99.90;;;;;;6244854;23;20004;-77
2024/01/29 00:21:16;;;;;;;40.57;25.57;;;3.80;99.90;;;;;;6217833;23;20027;-76
2024/01/29 00:23:42;;;;;;;40.20;25.73;;;3.80;99.90;;;;;;6218191;23;20000;-77
2024/01/29 00:26:08;;;;;;;47.27;27.07;;;3.80;99.90;;;;;;6244765;23;20015;-76
2024/01/29 00:28:34;;;;;;;43.10;27.67;;;3.70;99.90;;;;;;6244845;23;20020;-77
2024/01/29 00:31:00;;;;;;;46.27;27.80;;;3.70;99.90;;;;;;6245208;23;20000;-77
2024/01/29 00:33:25;;;;;;;48.13;28.67;;;3.70;99.90;;;;;;6245311;23;20000;-77
2024/01/29 00:35:51;;;;;;;42.97;26.83;;;3.70;99.90;;;;;;6244798;23;20028;-77
2024/01/29 00:38:17;;;;;;;43.67;27.43;;;3.70;99.90;;;;;;6245409;23;19996;-77
2024/01/29 00:40:42;;;;;;;47.13;27.00;;;3.70;99.90;;;;;;6245130;23;20011;-77
2024/01/29 00:43:08;;;;;;;46.77;26.10;;;3.70;99.90;;;;;;6245063;23;20000;-77
2024/01/29 00:45:34;;;;;;;43.90;26.60;;;3.70;99.90;;;;;;6245196;23;20046;-77
2024/01/29 00:48:00;;;;;;;43.07;26.00;;;3.70;99.90;;;;;;6244509;23;20011;-77
2024/01/29 00:50:25;;;;;;;40.80;24.63;;;3.60;99.90;;;;;;6245023;23;20000;-75
2024/01/29 00:52:51;;;;;;;38.90;23.37;;;3.50;99.90;;;;;;6244797;23;20028;-76
2024/01/29 00:55:17;;;;;;;38.10;22.70;;;3.50;99.90;;;;;;6244941;23;20004;-77
2024/01/29 00:57:42;;;;;;;41.13;24.13;;;3.50;99.90;;;;;;6244907;23;20086;-76
2024/01/29 01:00:09;;;;;;;37.33;22.80;;;3.50;99.90;;;;;;6243125;23;20039;-77
2024/01/29 01:02:35;;;;;;;38.00;22.23;;;3.50;99.90;;;;;;6244838;23;20020;-77
2024/01/29 01:05:01;;;;;;;34.80;21.70;;;3.50;99.90;;;;;;6245102;23;20051;-76
2024/01/29 01:07:27;;;;;;;38.10;22.43;;;3.50;99.90;;;;;;6245485;23;20000;-75
2024/01/29 01:09:53;;;;;;;37.87;22.33;;;3.50;99.90;;;;;;6243535;23;20001;-77
2024/01/29 01:12:19;;;;;;;39.73;23.73;;;3.50;99.90;;;;;;6244984;23;20483;-77
2024/01/29 01:14:45;;;;;;;33.00;20.10;;;3.50;99.90;;;;;;6245277;23;20004;-77
2024/01/29 01:17:10;;;;;;;29.23;18.03;;;3.50;99.90;;;;;;6244874;23;19996;-77
2024/01/29 01:19:36;;;;;;;26.70;16.57;;;3.60;99.90;;;;;;6244971;22;20032;-77
2024/01/29 01:22:02;;;;;;;25.97;15.67;;;3.60;99.90;;;;;;6244903;23;20342;-77
2024/01/29 01:24:28;;;;;;;29.67;14.67;;;3.50;99.90;;;;;;6244784;23;20004;-76
2024/01/29 01:26:53;;;;;;;23.30;13.27;;;3.50;99.90;;;;;;6244818;23;20019;-76
2024/01/29 01:29:19;;;;;;;23.10;13.20;;;3.40;99.90;;;;;;6244833;23;20126;-78
2024/01/29 01:31:45;;;;;;;20.57;12.77;;;3.40;99.90;;;;;;6245110;23;20003;-76
2024/01/29 01:34:11;;;;;;;22.80;12.90;;;3.40;99.90;;;;;;6245234;23;20023;-77
2024/01/29 01:36:37;;;;;;;18.93;11.87;;;3.30;99.90;;;;;;6244678;23;20012;-77
2024/01/29 01:39:03;;;;;;;23.87;13.10;;;3.30;99.90;;;;;;6244700;23;19996;-77
2024/01/29 01:41:29;;;;;;;21.30;12.53;;;3.20;99.90;;;;;;6246230;23;20095;-77
2024/01/29 01:43:55;;;;;;;22.57;13.33;;;3.20;99.90;;;;;;6246879;23;20024;-77
2024/01/29 01:46:23;;;;;;;24.33;13.67;;;3.20;99.90;;;;;;6246785;23;20004;-76
2024/01/29 01:48:51;;;;;;;25.93;15.77;;;3.20;99.90;;;;;;6246610;23;19997;-77
2024/01/29 01:51:18;;;;;;;38.63;20.50;;;3.10;99.90;;;;;;6246923;23;20000;-77
2024/01/29 01:53:45;;;;;;;37.90;21.13;;;3.10;99.90;;;;;;6246448;23;20011;-78
2024/01/29 01:56:11;;;;;;;39.53;21.07;;;3.10;99.90;;;;;;6246532;23;20602;-77
2024/01/29 01:58:40;;;;;;;39.40;21.27;;;3.10;99.90;;;;;;6244001;23;20054;-77
2024/01/29 02:01:06;;;;;;;38.13;20.80;;;3.00;99.90;;;;;;6215677;23;20039;-77
2024/01/29 02:03:32;;;;;;;36.27;20.20;;;3.00;99.90;;;;;;6243332;23;20360;-78
2024/01/29 02:05:58;;;;;;;35.40;21.17;;;3.00;99.90;;;;;;6245560;23;20004;-75
2024/01/29 02:08:24;;;;;;;37.30;22.20;;;3.00;99.90;;;;;;6246912;23;20007;-78
2024/01/29 02:10:52;;;;;;;33.70;20.70;;;3.10;99.90;;;;;;6246639;23;19996;-76
2024/01/29 02:13:18;;;;;;;39.73;20.40;;;3.00;99.90;;;;;;6246338;23;20335;-76
2024/01/29 02:15:44;;;;;;;33.13;19.60;;;3.00;99.90;;;;;;6246350;23;19996;-77
2024/01/29 02:18:09;;;;;;;38.40;20.93;;;2.90;99.90;;;;;;6246204;23;20034;-77
2024/01/29 02:20:36;;;;;;;36.43;19.33;;;2.90;99.90;;;;;;6245425;22;20087;-77
2024/01/29 02:23:02;;;;;;;31.17;19.17;;;2.90;99.90;;;;;;6246023;23;20012;-77
2024/01/29 02:25:28;;;;;;;33.47;19.37;;;2.90;99.90;;;;;;6245564;23;20003;-77
2024/01/29 02:27:54;;;;;;;30.57;17.63;;;2.90;99.90;;;;;;6218983;23;20008;-76
2024/01/29 02:30:19;;;;;;;27.90;17.10;;;3.00;99.90;;;;;;6245804;23;20004;-78
2024/01/29 02:32:45;;;;;;;30.00;17.77;;;3.00;99.90;;;;;;6246375;23;20004;-78
2024/01/29 02:35:11;;;;;;;30.67;17.03;;;2.90;99.90;;;;;;6218827;23;20000;-77
2024/01/29 02:37:37;;;;;;;24.53;15.77;;;2.80;99.90;;;;;;6246349;23;20005;-77
2024/01/29 02:40:04;;;;;;;26.30;15.30;;;2.80;99.90;;;;;;6246236;23;20004;-77
2024/01/29 02:42:30;;;;;;;31.20;16.13;;;2.80;99.90;;;;;;6245516;23;20458;-74
2024/01/29 02:44:56;;;;;;;26.17;15.67;;;2.80;99.90;;;;;;6245928;23;20435;-77
2024/01/29 02:47:22;;;;;;;28.53;15.27;;;2.80;99.90;;;;;;6246183;23;20010;-77
2024/01/29 02:49:48;;;;;;;25.70;15.17;;;2.70;99.90;;;;;;6246038;23;20004;-77
2024/01/29 02:52:14;;;;;;;23.67;15.00;;;2.70;99.90;;;;;;6245626;23;20000;-76
2024/01/29 02:54:39;;;;;;;24.33;14.77;;;2.70;99.90;;;;;;6244390;23;20035;-76
2024/01/29 02:57:05;;;;;;;25.90;15.13;;;2.70;99.90;;;;;;6245896;23;20008;-76
2024/01/29 02:59:32;;;;;;;27.67;15.97;;;2.70;99.90;;;;;;6245501;23;20494;-77
2024/01/29 03:01:58;;;;;;;25.20;15.03;;;2.70;99.90;;;;;;6245326;23;20016;-78
2024/01/29 03:04:24;;;;;;;27.17;17.13;;;2.70;99.90;;;;;;6245762;23;20414;-77
2024/01/29 03:06:50;;;;;;;30.90;17.63;;;2.70;99.90;;;;;;6245818;23;20144;-77
2024/01/29 03:09:16;;;;;;;29.63;17.07;;;2.70;99.90;;;;;;6246237;23;20000;-77
2024/01/29 03:11:43;;;;;;;28.07;17.27;;;2.80;99.90;;;;;;6245934;23;20082;-77
2024/01/29 03:14:09;;;;;;;26.50;17.40;;;2.70;99.90;;;;;;6245252;23;20069;-77
2024/01/29 03:16:35;;;;;;;27.97;18.27;;;2.70;99.90;;;;;;6245412;23;20489;-77
2024/01/29 03:19:01;;;;;;;33.43;18.43;;;2.60;99.90;;;;;;6245834;23;20003;-77
2024/01/29 03:21:27;;;;;;;31.70;18.57;;;2.50;99.90;;;;;;6245686;22;20012;-77
2024/01/29 03:23:54;;;;;;;34.63;18.67;;;2.50;99.90;;;;;;6245689;23;20050;-77
2024/01/29 03:26:20;;;;;;;29.23;17.43;;;2.30;99.60;;;;;;6245703;23;20000;-76
2024/01/29 03:28:45;;;;;;;33.80;17.43;;;2.30;99.80;;;;;;6218579;23;20004;-77
2024/01/29 03:31:11;;;;;;;28.20;17.23;;;2.30;99.90;;;;;;6245253;23;19996;-77
2024/01/29 03:33:37;;;;;;;31.57;17.37;;;2.30;99.90;;;;;;6245522;23;20004;-77
2024/01/29 03:36:04;;;;;;;30.97;17.87;;;2.20;99.90;;;;;;6245712;23;20072;-77
2024/01/29 03:38:29;;;;;;;31.77;16.83;;;2.20;99.90;;;;;;6245905;23;20004;-77
2024/01/29 03:40:55;;;;;;;32.43;16.63;;;2.30;99.90;;;;;;6245397;23;20004;-77
2024/01/29 03:43:21;;;;;;;32.37;18.20;;;2.30;99.90;;;;;;6245453;23;20027;-76
2024/01/29 03:45:47;;;;;;;29.63;16.43;;;2.30;99.90;;;;;;6245947;23;20000;-78
2024/01/29 03:48:13;;;;;;;28.30;16.83;;;2.20;99.90;;;;;;6245494;23;20096;-77
2024/01/29 03:50:39;;;;;;;32.93;17.00;;;2.20;99.90;;;;;;6245199;23;20032;-77
2024/01/29 03:53:04;;;;;;;30.73;16.00;;;2.20;99.90;;;;;;6245365;23;20087;-77
2024/01/29 03:55:30;;;;;;;33.93;16.90;;;2.10;99.90;;;;;;6245255;23;20066;-77
2024/01/29 03:57:56;;;;;;;29.00;16.53;;;2.10;99.90;;;;;;6217999;23;20038;-77
2024/01/29 04:00:23;;;;;;;27.60;16.17;;;2.10;99.90;;;;;;6245053;23;20003;-77
2024/01/29 04:02:49;;;;;;;27.37;15.53;;;2.20;99.90;;;;;;6244691;23;20011;-77
2024/01/29 04:05:16;;;;;;;26.33;15.40;;;2.10;99.90;;;;;;6245536;23;20129;-76
2024/01/29 04:07:42;;;;;;;25.03;14.87;;;2.10;99.90;;;;;;6245370;23;20007;-78
2024/01/29 04:10:08;;;;;;;29.10;15.30;;;2.10;99.90;;;;;;6245645;23;20000;-78
2024/01/29 04:12:34;;;;;;;29.90;15.37;;;2.10;99.90;;;;;;6245326;23;20086;-78
2024/01/29 04:15:00;;;;;;;27.37;14.93;;;2.10;99.90;;;;;;6245413;23;20323;-78
2024/01/29 04:17:25;;;;;;;27.60;14.27;;;2.10;99.90;;;;;;6245262;23;20023;-77
2024/01/29 04:19:51;;;;;;;28.37;15.97;;;2.10;99.90;;;;;;6244878;22;20000;-76
2024/01/29 04:22:17;;;;;;;26.97;15.07;;;2.10;99.90;;;;;;6244743;23;20015;-77
2024/01/29 04:24:43;;;;;;;28.57;15.13;;;2.10;99.90;;;;;;6245278;23;20371;-77
2024/01/29 04:27:09;;;;;;;28.77;14.73;;;2.10;99.90;;;;;;6245155;23;20079;-77
2024/01/29 04:29:34;;;;;;;27.03;14.07;;;2.10;99.90;;;;;;6245034;23;19996;-77
2024/01/29 04:32:00;;;;;;;26.80;14.50;;;2.10;99.90;;;;;;6242788;23;20011;-78
2024/01/29 04:34:26;;;;;;;30.93;15.13;;;2.10;99.90;;;;;;6244287;23;20104;-77
2024/01/29 04:36:52;;;;;;;29.57;15.53;;;2.10;99.90;;;;;;6244456;23;20004;-78
2024/01/29 04:39:18;;;;;;;25.43;14.27;;;2.10;99.90;;;;;;6244981;23;20000;-78
2024/01/29 04:41:43;;;;;;;23.93;13.27;;;2.00;99.90;;;;;;6244908;23;20119;-78
2024/01/29 04:44:09;;;;;;;24.97;12.67;;;2.00;99.90;;;;;;6217404;23;20005;-77
2024/01/29 04:46:36;;;;;;;23.60;12.83;;;2.00;99.90;;;;;;6243865;23;20004;-76
2024/01/29 04:49:02;;;;;;;25.83;13.40;;;2.00;99.90;;;;;;6244308;23;20615;-77
2024/01/29 04:51:28;;;;;;;21.17;13.00;;;2.00;99.90;;;;;;6244764;23;20031;-76
2024/01/29 04:53:54;;;;;;;24.70;12.37;;;2.00;99.90;;;;;;6245144;23;20008;-78
2024/01/29 04:56:19;;;;;;;25.50;12.87;;;2.00;99.90;;;;;;6245347;23;20000;-77
2024/01/29 04:58:45;;;;;;;31.10;14.13;;;2.10;99.90;;;;;;6244711;23;20001;-76
2024/01/29 05:01:11;;;;;;;20.50;12.13;;;2.00;99.90;;;;;;6244777;23;20012;-77
2024/01/29 05:03:37;;;;;;;19.97;12.10;;;2.00;99.90;;;;;;6244982;23;20001;-75
2024/01/29 05:06:03;;;;;;;22.23;12.63;;;2.00;99.90;;;;;;6245564;23;20035;-77
2024/01/29 05:08:29;;;;;;;19.20;11.90;;;2.00;99.90;;;;;;6244867;23;20323;-77
2024/01/29 05:10:55;;;;;;;20.60;12.10;;;2.00;99.90;;;;;;6244964;23;20423;-76
2024/01/29 05:13:21;;;;;;;18.03;10.20;;;2.00;99.90;;;;;;6245049;23;20001;-75
2024/01/29 05:15:46;;;;;;;17.10;9.83;;;2.00;99.90;;;;;;6246617;23;20000;-76
2024/01/29 05:18:12;;;;;;;17.57;9.67;;;2.00;99.90;;;;;;6246540;23;20028;-75
2024/01/29 05:20:38;;;;;;;16.53;9.53;;;2.00;99.90;;;;;;6245349;23;20028;-76
2024/01/29 05:23:04;;;;;;;16.40;8.50;;;2.00;99.90;;;;;;6246809;23;20039;-76
2024/01/29 05:25:31;;;;;;;12.67;7.97;;;2.00;99.90;;;;;;6246819;23;19996;-74
2024/01/29 05:27:56;;;;;;;16.23;8.97;;;2.00;99.90;;;;;;6219885;23;20065;-76
2024/01/29 05:30:23;;;;;;;17.10;9.73;;;2.10;99.90;;;;;;6246360;23;20178;-77
2024/01/29 05:32:48;;;;;;;16.63;9.83;;;2.10;99.90;;;;;;6246331;23;20500;-76
2024/01/29 05:35:14;;;;;;;19.60;9.23;;;2.20;99.90;;;;;;6246330;23;20000;-75
2024/01/29 05:37:40;;;;;;;15.70;9.37;;;2.20;99.90;;;;;;6246830;23;20007;-76
2024/01/29 05:40:07;;;;;;;19.30;9.20;;;2.20;99.90;;;;;;6246964;23;20007;-76
2024/01/29 05:42:33;;;;;;;16.63;8.90;;;2.20;99.90;;;;;;6246592;23;20426;-76
2024/01/29 05:44:59;;;;;;;16.87;8.53;;;2.20;99.90;;;;;;6246099;23;20075;-76
2024/01/29 05:47:24;;;;;;;14.90;8.37;;;2.20;99.90;;;;;;6246839;23;20000;-75
2024/01/29 05:49:50;;;;;;;15.70;8.27;;;2.20;99.90;;;;;;6247084;23;20445;-76
2024/01/29 05:52:16;;;;;;;16.13;8.87;;;2.20;99.90;;;;;;6246391;23;20070;-74
2024/01/29 05:54:42;;;;;;;14.07;8.23;;;2.10;99.90;;;;;;6246622;23;19996;-76
2024/01/29 05:57:10;;;;;;;13.13;7.13;;;2.00;99.90;;;;;;6246868;23;20027;-75
2024/01/29 05:59:39;;;;;;;12.70;6.70;;;2.00;99.90;;;;;;6246239;23;20000;-76
2024/01/29 06:02:05;;;;;;;11.13;6.80;;;1.90;99.90;;;;;;6246680;23;20070;-76
2024/01/29 06:04:31;;;;;;;9.23;5.87;;;1.80;99.90;;;;;;6246608;23;20443;-77
2024/01/29 06:06:57;;;;;;;11.90;6.43;;;1.80;99.90;;;;;;6244762;23;20007;-77
2024/01/29 06:09:22;;;;;;;10.50;6.20;;;1.80;99.90;;;;;;6243215;23;20003;-76
2024/01/29 06:11:53;;;;;;;11.27;6.33;;;1.80;99.90;;;;;;6243685;23;20156;-77
2024/01/29 06:14:19;;;;;;;15.37;7.70;;;1.80;99.90;;;;;;6246536;23;20454;-76
2024/01/29 06:16:45;;;;;;;16.20;8.60;;;1.80;99.90;;;;;;6246964;23;20004;-77
2024/01/29 06:19:15;;;;;;;19.97;7.73;;;1.80;99.90;;;;;;6246138;23;20008;-76
2024/01/29 06:21:44;;;;;;;13.07;7.70;;;1.80;99.90;;;;;;6245860;22;20431;-76
2024/01/29 06:24:10;;;;;;;12.67;7.43;;;1.80;99.90;;;;;;6246658;23;20011;-76
2024/01/29 06:26:37;;;;;;;19.90;8.60;;;1.70;99.90;;;;;;6246139;23;20007;-76
2024/01/29 06:29:03;;;;;;;16.47;8.17;;;1.70;99.90;;;;;;6246650;23;20318;-77
2024/01/29 06:31:29;;;;;;;14.10;8.13;;;1.70;99.90;;;;;;6246267;23;20000;-78
2024/01/29 06:33:55;;;;;;;17.60;7.83;;;1.70;99.90;;;;;;6246704;23;20477;-77
2024/01/29 06:36:22;;;;;;;20.50;9.00;;;1.60;99.90;;;;;;6245924;23;19996;-77
2024/01/29 06:38:47;;;;;;;16.97;8.93;;;1.70;99.90;;;;;;6245839;23;20000;-76
2024/01/29 06:41:20;;;;;;;19.87;8.40;;;1.70;99.90;;;;;;6245753;23;20016;-76
2024/01/29 06:43:46;;;;;;;18.93;9.03;;;1.60;99.90;;;;;;6246217;23;19996;-77
2024/01/29 06:46:12;;;;;;;25.00;8.23;;;1.60;99.90;;;;;;6246084;23;20004;-76
2024/01/29 06:48:37;;;;;;;19.53;8.13;;;1.60;99.90;;;;;;6246192;23;20000;-76
2024/01/29 06:51:04;;;;;;;25.63;9.90;;;1.70;99.90;;;;;;6246206;23;20046;-77
2024/01/29 06:53:31;;;;;;;16.97;9.07;;;1.60;99.90;;;;;;6246037;23;20006;-76
2024/01/29 06:55:59;;;;;;;15.53;9.00;;;1.60;99.90;;;;;;6246298;23;20008;-77
2024/01/29 06:58:25;;;;;;;23.80;10.77;;;1.60;99.90;;;;;;6246260;23;20048;-77
2024/01/29 07:00:51;;;;;;;24.57;9.87;;;1.60;99.90;;;;;;6246175;23;20011;-78
2024/01/29 07:03:18;;;;;;;24.20;11.27;;;1.60;99.90;;;;;;6246220;23;20065;-79
2024/01/29 07:05:48;;;;;;;35.07;11.03;;;1.60;99.90;;;;;;6245638;23;20028;-78
2024/01/29 07:08:16;;;;;;;29.57;10.57;;;1.60;99.90;;;;;;6245867;23;20419;-78
2024/01/29 07:10:42;;;;;;;22.90;10.17;;;1.50;99.90;;;;;;6246057;23;20000;-78
2024/01/29 07:13:08;;;;;;;30.93;12.10;;;1.50;99.90;;;;;;6245841;23;20004;-78
2024/01/29 07:15:34;;;;;;;26.13;10.40;;;1.60;99.90;;;;;;6246515;23;20130;-78
2024/01/29 07:18:00;;;;;;;22.33;10.43;;;1.60;99.90;;;;;;6245646;23;20004;-78
2024/01/29 07:20:29;;;;;;;19.67;9.63;;;1.60;99.90;;;;;;6245785;22;20019;-77
2024/01/29 07:22:56;;;;;;;18.90;9.90;;;1.70;99.90;;;;;;6245705;23;20012;-78
2024/01/29 07:25:22;;;;;;;20.07;10.23;;;1.80;99.90;;;;;;6245629;23;20430;-75
2024/01/29 07:27:48;;;;;;;20.47;9.33;;;1.80;99.90;;;;;;6245384;23;20011;-76
2024/01/29 07:30:14;;;;;;;23.80;10.03;;;1.90;99.90;;;;;;6245217;23;20032;-77
2024/01/29 07:32:40;;;;;;;32.40;11.43;;;2.00;99.90;;;;;;6245461;23;20007;-77
2024/01/29 07:35:07;;;;;;;29.70;12.37;;;2.10;99.90;;;;;;6245359;23;20007;-76
2024/01/29 07:37:32;;;;;;;30.80;12.77;;;2.20;99.90;;;;;;6243478;23;20070;-77
2024/01/29 07:39:58;;;;;;;27.17;13.10;;;2.10;99.90;;;;;;6245694;23;20003;-78
2024/01/29 07:42:24;;;;;;;34.97;12.73;;;2.10;99.90;;;;;;6217931;23;20022;-77
2024/01/29 07:44:53;;;;;;;26.33;11.97;;;2.20;99.90;;;;;;6245418;23;20384;-79
2024/01/29 07:47:19;;;;;;;29.43;12.70;;;2.20;99.90;;;;;;6245516;23;20008;-76
2024/01/29 07:49:45;;;;;;;34.07;13.43;;;2.30;99.90;;;;;;6245301;23;20023;-72
2024/01/29 07:52:10;;;;;;;30.80;12.10;;;2.40;99.90;;;;;;6245531;23;20032;-75
2024/01/29 07:54:36;;;;;;;28.97;12.67;;;2.50;99.90;;;;;;6245715;23;20007;-75
2024/01/29 07:57:03;;;;;;;34.30;14.20;;;2.70;99.90;;;;;;6245541;23;20010;-74
2024/01/29 07:59:29;;;;;;;36.80;14.90;;;2.70;99.90;;;;;;6245338;23;19996;-74
2024/01/29 08:01:55;;;;;;;30.50;14.33;;;2.80;99.90;;;;;;6245120;23;20070;-75
2024/01/29 08:04:21;;;;;;;30.40;13.73;;;2.90;99.90;;;;;;6245377;23;20415;-74
2024/01/29 08:06:47;;;;;;;37.37;13.97;;;3.00;99.90;;;;;;6245665;23;20004;-73
2024/01/29 08:09:12;;;;;;;33.07;13.40;;;3.10;99.90;;;;;;6245373;23;19998;-76
2024/01/29 08:11:39;;;;;;;35.83;14.73;;;3.10;99.90;;;;;;6245074;23;20000;-74
2024/01/29 08:14:05;;;;;;;53.13;18.20;;;3.20;99.90;;;;;;6245234;23;20000;-74
2024/01/29 08:16:31;;;;;;;39.57;16.63;;;3.30;99.90;;;;;;6243768;23;20385;-75
2024/01/29 08:18:58;;;;;;;33.43;16.87;;;3.30;99.90;;;;;;6218330;23;20005;-74
2024/01/29 08:21:24;;;;;;;38.57;18.17;;;3.40;99.90;;;;;;6219089;23;20062;-75
2024/01/29 08:23:50;;;;;;;40.97;17.80;;;3.40;99.90;;;;;;6188520;23;20035;-73
2024/01/29 08:26:16;;;;;;;41.77;17.53;;;3.40;99.90;;;;;;6215373;23;20070;-73
2024/01/29 08:28:42;;;;;;;38.60;17.43;;;3.40;99.90;;;;;;6214462;23;20005;-72
2024/01/29 08:31:09;;;;;;;29.33;15.13;;;3.50;99.90;;;;;;6215136;23;20007;-73
2024/01/29 08:33:35;;;;;;;36.23;14.83;;;3.60;99.90;;;;;;6214589;23;20335;-75
2024/01/29 08:36:00;;;;;;;47.83;15.87;;;3.60;99.90;;;;;;6214925;23;20000;-73
2024/01/29 08:38:26;;;;;;;42.63;17.33;;;3.70;99.90;;;;;;6215143;23;20538;-74
2024/01/29 08:40:52;;;;;;;41.03;15.03;;;3.70;99.90;;;;;;6214436;23;20011;-73
2024/01/29 08:43:19;;;;;;;28.60;13.90;;;3.80;99.90;;;;;;6214968;23;20014;-73
2024/01/29 08:45:44;;;;;;;39.00;14.60;;;3.90;99.90;;;;;;6214882;23;20386;-73
2024/01/29 08:48:10;;;;;;;30.67;13.20;;;3.90;99.90;;;;;;6214879;23;20005;-72
2024/01/29 08:50:36;;;;;;;30.97;12.77;;;4.00;99.90;;;;;;6217111;23;19997;-73
2024/01/29 08:53:05;;;;;;;26.77;12.43;;;4.00;99.90;;;;;;6217114;23;20004;-73
2024/01/29 08:55:31;;;;;;;20.33;10.87;;;4.20;99.90;;;;;;6216995;23;20009;-75
2024/01/29 08:57:57;;;;;;;27.47;11.43;;;4.20;99.90;;;;;;6216635;23;20001;-74
2024/01/29 09:00:23;;;;;;;32.30;11.60;;;4.30;99.90;;;;;;6189967;23;20016;-74
2024/01/29 09:02:49;;;;;;;22.40;12.37;;;4.40;99.90;;;;;;6216608;23;20017;-74
2024/01/29 09:05:16;;;;;;;29.47;12.10;;;4.50;99.90;;;;;;6189984;23;20080;-75
2024/01/29 09:07:41;;;;;;;19.93;11.77;;;4.60;99.90;;;;;;6216651;23;20012;-74
2024/01/29 09:10:08;;;;;;;24.07;10.87;;;4.70;99.90;;;;;;6217036;23;20120;-74
2024/01/29 09:12:34;;;;;;;17.10;10.23;;;4.80;99.90;;;;;;6216870;23;20356;-73
2024/01/29 09:15:02;;;;;;;15.87;9.63;;;4.80;99.90;;;;;;6216680;23;19996;-73
2024/01/29 09:17:27;;;;;;;20.77;10.23;;;4.90;99.90;;;;;;6216623;23;20008;-72
2024/01/29 09:19:53;;;;;;;16.37;9.80;;;5.00;99.90;;;;;;6216591;23;20334;-73
2024/01/29 09:22:19;;;;;;;19.37;9.60;;;5.10;99.90;;;;;;6216570;23;20016;-73
2024/01/29 09:24:44;;;;;;;15.13;9.60;;;5.20;99.90;;;;;;6216249;23;20032;-72
2024/01/29 09:27:11;;;;;;;19.87;9.13;;;5.20;99.50;;;;;;6216047;23;20011;-73
2024/01/29 09:29:36;;;;;;;17.50;9.57;;;5.30;99.20;;;;;;6216647;23;20011;-74
2024/01/29 09:32:02;;;;;;;19.50;8.97;;;5.40;99.00;;;;;;6216748;23;20079;-73
2024/01/29 09:34:28;;;;;;;13.73;8.57;;;5.50;98.50;;;;;;6216458;23;20047;-73
2024/01/29 09:36:54;;;;;;;17.50;9.57;;;5.60;98.90;;;;;;6216352;23;20050;-72
2024/01/29 09:39:24;;;;;;;17.33;8.40;;;5.70;99.00;;;;;;6216437;23;20001;-73
2024/01/29 09:41:52;;;;;;;20.57;9.57;;;5.80;99.10;;;;;;6216476;23;20116;-73
2024/01/29 09:44:18;;;;;;;17.60;10.23;;;5.80;99.20;;;;;;6216685;23;20004;-73
2024/01/29 09:46:46;;;;;;;28.33;15.07;;;5.90;99.00;;;;;;6216550;23;19996;-74
2024/01/29 09:49:12;;;;;;;33.33;20.80;;;6.00;98.40;;;;;;6216630;23;20394;-74
2024/01/29 09:51:39;;;;;;;32.57;18.60;;;6.10;98.90;;;;;;6216282;23;20000;-73
2024/01/29 09:54:05;;;;;;;28.80;16.40;;;6.10;99.90;;;;;;6216640;23;20003;-73
2024/01/29 09:56:32;;;;;;;21.03;13.80;;;6.20;99.90;;;;;;6216300;23;20060;-73
2024/01/29 09:58:58;;;;;;;21.57;11.13;;;6.30;99.90;;;;;;6216493;23;20001;-74
2024/01/29 10:01:24;;;;;;;17.47;11.30;;;6.40;99.90;;;;;;6215278;23;20016;-73
2024/01/29 10:03:50;;;;;;;17.60;10.60;;;;;;;;;;6216307;23;20001;-74
2024/01/29 10:06:16;;;;;;;19.40;8.80;;;;;;;;;;6215904;23;20004;-73
2024/01/29 10:08:43;;;;;;;17.40;8.70;;;;;;;;;;6216039;23;19996;-73
2024/01/29 10:11:08;;;;;;;11.23;7.67;;;6.70;99.90;;;;;;6215962;23;20327;-73
2024/01/29 10:13:35;;;;;;;10.27;6.30;;;6.80;99.90;;;;;;6215992;23;20005;-73
2024/01/29 10:16:01;;;;;;;18.63;5.73;;;6.90;99.90;;;;;;6216313;23;20063;-73
2024/01/29 10:18:26;;;;;;;14.93;6.53;;;6.90;96.90;;;;;;6216149;23;20004;-73
2024/01/29 10:20:59;;;;;;;12.00;5.87;;;7.00;94.80;;;;;;6215539;23;20136;-73
2024/01/29 10:23:25;;;;;;;;;;;7.10;95.40;;;;;;6216352;23;20415;-73
2024/01/29 10:26:00;;;;;;;12.90;5.70;;;7.10;94.50;;;;;;6215890;23;19907;-73
2024/01/29 10:28:26;;;;;;;9.03;4.93;;;7.20;94.20;;;;;;6215913;23;20009;-73
2024/01/29 10:30:54;;;;;;;10.27;4.93;;;7.30;93.10;;;;;;6215778;23;20431;-73
2024/01/29 10:33:20;;;;;;;8.93;4.60;;;7.30;92.70;;;;;;6215896;23;20017;-72
2024/01/29 10:35:46;;;;;;;8.90;4.90;;;7.40;92.80;;;;;;6189311;23;20467;-73
2024/01/29 10:38:14;;;;;;;10.33;4.77;;;7.50;93.30;;;;;;6216046;23;20477;-74
2024/01/29 10:40:41;;;;;;;9.77;4.70;;;7.60;92.00;;;;;;6215296;23;20011;-73
2024/01/29 10:43:15;;;;;;;12.60;5.10;;;7.70;91.40;;;;;;6215535;23;20353;-74
2024/01/29 10:45:44;;;;;;;12.57;5.37;;;7.70;91.00;;;;;;6216226;23;20367;-74
2024/01/29 10:48:20;;;;;;;11.90;5.33;;;7.80;91.50;;;;;;6215626;23;20005;-74
2024/01/29 10:50:47;;;;;;;8.57;5.07;;;7.90;92.50;;;;;;6215489;23;20020;-74
2024/01/29 10:53:16;;;;;;;11.17;5.40;;;8.00;93.90;;;;;;6215371;23;20312;-73
2024/01/29 10:55:43;;;;;;;9.37;5.43;;;;;;;;;;6215688;23;20012;-74
2024/01/29 10:58:11;;;;;;;10.23;5.27;;;;;;;;;;6216134;23;20012;-73
2024/01/29 11:00:37;;;;;;;11.00;4.47;;;;;;;;;;6215545;23;19996;-74
2024/01/29 11:03:05;;;;;;;9.93;5.40;;;;;;;;;;6215846;23;20040;-73
2024/01/29 11:05:32;;;;;;;12.20;4.93;;;;;;;;;;6215750;23;20005;-74
2024/01/29 11:07:58;;;;;;;13.17;4.87;;;;;;;;;;6215556;23;20004;-73
2024/01/29 11:10:24;;;;;;;9.83;4.93;;;;;;;;;;6215140;23;20067;-75
2024/01/29 11:12:52;;;;;;;9.37;4.70;;;;;;;;;;6215064;23;20001;-73
2024/01/29 11:15:19;;;;;;;8.67;4.60;;;9.10;83.00;;;;;;6214939;23;20036;-73
2024/01/29 11:17:45;;;;;;;9.73;4.70;;;9.10;82.40;;;;;;6215357;23;19996;-73
2024/01/29 11:20:13;;;;;;;10.40;4.77;;;9.00;84.00;;;;;;6215110;23;20021;-73
2024/01/29 11:22:51;;;;;;;8.83;5.23;;;9.10;83.40;;;;;;6215139;23;20019;-73
2024/01/29 11:25:17;;;;;;;7.97;5.10;;;9.20;84.10;;;;;;6215343;23;20431;-74
2024/01/29 11:27:45;;;;;;;10.03;4.33;;;9.20;85.30;;;;;;6215204;23;20001;-74
2024/01/29 11:30:25;;;;;;;7.30;4.43;;;9.40;76.60;;;;;;6214920;23;20003;-73
2024/01/29 11:32:55;;;;;;;7.00;4.40;;;9.40;75.30;;;;;;6188277;23;20463;-74
2024/01/29 11:35:23;;;;;;;10.53;4.60;;;9.40;75.90;;;;;;6215313;23;20035;-74
2024/01/29 11:37:54;;;;;;;8.53;4.73;;;9.50;75.10;;;;;;6188223;23;20012;-73
2024/01/29 11:40:53;;;;;;;8.37;5.27;;;9.60;80.30;;;;;;6215011;23;20008;-73
2024/01/29 11:43:20;;;;;;;9.90;4.63;;;9.70;87.70;;;;;;6181029;23;20019;-73
2024/01/29 11:45:49;;;;;;;8.57;4.40;;;9.80;82.80;;;;;;6214731;23;20005;-73
2024/01/29 11:48:17;;;;;;;10.50;4.30;;;9.80;81.50;;;;;;6214784;23;20011;-72
2024/01/29 11:50:48;;;;;;;9.37;4.50;;;9.90;81.80;;;;;;6215424;23;20000;-73
2024/01/29 11:53:18;;;;;;;9.13;4.70;;;10.00;81.50;;;;;;6215258;23;20494;-73
2024/01/29 11:55:48;;;;;;;6.50;4.00;;;10.10;84.60;;;;;;6215012;23;20370;-73
2024/01/29 11:58:16;;;;;;;7.77;5.50;;;10.20;82.00;;;;;;6214797;23;20013;-73
2024/01/29 12:00:44;;;;;;;9.30;5.63;;;10.30;81.70;;;;;;6217288;23;20323;-73
2024/01/29 12:03:15;;;;;;;8.40;4.63;;;10.30;80.90;;;;;;6215217;23;20019;-72
2024/01/29 12:05:41;;;;;;;7.60;4.77;;;10.40;80.60;;;;;;6214671;23;20007;-72
2024/01/29 12:08:17;;;;;;;21.17;4.70;;;10.50;79.60;;;;;;6215117;23;20079;-72
2024/01/29 12:10:44;;;;;;;9.33;4.67;;;10.60;80.30;;;;;;6215361;23;20009;-73
2024/01/29 12:13:14;;;;;;;10.63;4.43;;;10.60;79.30;;;;;;6214876;23;20001;-73
2024/01/29 12:15:40;;;;;;;12.30;5.70;;;10.70;79.30;;;;;;6214762;23;20552;-73
2024/01/29 12:18:09;;;;;;;8.07;4.47;;;10.80;79.20;;;;;;6214224;23;20334;-73
2024/01/29 12:20:37;;;;;;;10.63;4.67;;;10.90;80.00;;;;;;6186905;23;20044;-72
2024/01/29 12:23:03;;;;;;;10.63;4.67;;;10.90;78.70;;;;;;6214382;23;20071;-73
2024/01/29 12:25:29;;;;;;;6.13;4.57;;;11.00;78.70;;;;;;6214415;23;19997;-72
2024/01/29 12:28:03;;;;;;;6.88;4.47;;;11.10;79.30;;;;;;6215014;23;20104;-72
2024/01/29 12:30:30;;;;;;;7.95;5.30;;;11.10;78.60;;;;;;6213284;23;20040;-72
2024/01/29 12:32:56;;;;;;;9.75;5.10;;;11.20;79.40;;;;;;6214669;23;20032;-72
2024/01/29 12:35:26;;;;;;;8.98;5.80;;;11.30;81.10;;;;;;6214561;23;20345;-73
2024/01/29 12:37:52;;;;;;;10.33;5.70;;;11.30;81.20;;;;;;6215122;23;20016;-73
2024/01/29 12:40:18;;;;;;;7.70;5.47;;;11.40;81.10;;;;;;6214449;23;20096;-71
2024/01/29 12:42:44;;;;;;;8.52;4.80;;;11.50;80.30;;;;;;6214065;23;20049;-73